sensor_id;sensor_type;location;lat;lon;timestamp;pressure;altitude;pressure_sealevel;temperature;humidity
8717;BME280;4395;48.554;8.820;2023-04-12T00:00:26;95413.81;;;8.64;100.00
8717;BME280;4395;48.554;8.820;2023-04-12T00:02:29;95407.16;;;8.66;100.00
8717;BME280;4395;48.554;8.820;2023-04-12T00:04:36;95399.06;;;8.61;100.00
8717;BME280;4395;48.554;8.820;2023-04-12T00:06:40;95356.34;;;8.28;100.00
8717;BME280;4395;48.554;8.820;2023-04-12T00:08:42;95390.97;;;8.56;100.00
8717;BME280;4395;48.554;8.820;2023-04-12T00:10:47;95303.72;;;8.12;100.00
8717;BME280;4395;48.554;8.820;2023-04-12T00:12:51;95389.34;;;8.55;100.00
8717;BME280;4395;48.554;8.820;2023-04-12T00:14:54;95377.78;;;8.50;100.00
8717;BME280;4395;48.554;8.820;2023-04-12T00:16:57;95379.34;;;8.46;100.00
8717;BME280;4395;48.554;8.820;2023-04-12T00:18:59;95374.72;;;8.41;100.00
8717;BME280;4395;48.554;8.820;2023-04-12T00:21:04;95368.50;;;8.35;100.00
8717;BME280;4395;48.554;8.820;2023-04-12T00:23:07;95379.22;;;8.35;100.00
8717;BME280;4395;48.554;8.820;2023-04-12T00:25:13;95358.09;;;8.39;100.00
8717;BME280;4395;48.554;8.820;2023-04-12T00:27:16;95257.22;;;7.74;100.00
8717;BME280;4395;48.554;8.820;2023-04-12T00:29:20;95362.34;;;8.35;100.00
8717;BME280;4395;48.554;8.820;2023-04-12T00:31:23;95360.09;;;8.27;100.00
8717;BME280;4395;48.554;8.820;2023-04-12T00:33:26;95346.66;;;8.22;100.00
8717;BME280;4395;48.554;8.820;2023-04-12T00:35:28;95258.28;;;7.73;100.00
8717;BME280;4395;48.554;8.820;2023-04-12T00:37:32;95339.72;;;8.26;100.00
8717;BME280;4395;48.554;8.820;2023-04-12T00:39:36;95345.09;;;8.26;100.00
8717;BME280;4395;48.554;8.820;2023-04-12T00:41:39;95341.53;;;8.20;100.00
8717;BME280;4395;48.554;8.820;2023-04-12T00:43:42;95338.63;;;8.22;100.00
8717;BME280;4395;48.554;8.820;2023-04-12T00:45:47;95332.19;;;8.23;100.00
8717;BME280;4395;48.554;8.820;2023-04-12T00:47:49;95200.72;;;7.43;100.00
8717;BME280;4395;48.554;8.820;2023-04-12T00:49:52;95321.50;;;8.23;100.00
8717;BME280;4395;48.554;8.820;2023-04-12T00:51:57;95071.28;;;6.47;100.00
8717;BME280;4395;48.554;8.820;2023-04-12T00:54:05;95279.84;;;7.83;100.00
8717;BME280;4395;48.554;8.820;2023-04-12T00:56:08;95330.28;;;8.18;100.00
8717;BME280;4395;48.554;8.820;2023-04-12T00:58:13;95330.28;;;8.18;100.00
8717;BME280;4395;48.554;8.820;2023-04-12T01:00:18;95318.66;;;8.07;100.00
8717;BME280;4395;48.554;8.820;2023-04-12T01:02:22;95321.94;;;8.15;100.00
8717;BME280;4395;48.554;8.820;2023-04-12T01:04:26;95311.44;;;8.08;100.00
8717;BME280;4395;48.554;8.820;2023-04-12T01:06:41;95314.41;;;8.12;100.00
8717;BME280;4395;48.554;8.820;2023-04-12T01:08:55;95309.25;;;8.05;100.00
8717;BME280;4395;48.554;8.820;2023-04-12T01:11:03;95319.00;;;8.16;100.00
8717;BME280;4395;48.554;8.820;2023-04-12T01:13:15;95308.88;;;8.18;100.00
8717;BME280;4395;48.554;8.820;2023-04-12T01:15:23;95218.13;;;7.68;100.00
8717;BME280;4395;48.554;8.820;2023-04-12T01:17:29;95264.41;;;7.90;100.00
8717;BME280;4395;48.554;8.820;2023-04-12T01:19:47;95294.63;;;8.13;100.00
8717;BME280;4395;48.554;8.820;2023-04-12T01:22:09;95297.84;;;8.15;100.00
8717;BME280;4395;48.554;8.820;2023-04-12T01:24:24;95170.75;;;7.41;100.00
8717;BME280;4395;48.554;8.820;2023-04-12T01:26:33;95166.22;;;7.42;100.00
8717;BME280;4395;48.554;8.820;2023-04-12T01:28:41;95285.84;;;8.17;100.00
8717;BME280;4395;48.554;8.820;2023-04-12T01:30:45;95282.91;;;8.19;100.00
8717;BME280;4395;48.554;8.820;2023-04-12T01:32:50;95280.53;;;8.22;100.00
8717;BME280;4395;48.554;8.820;2023-04-12T01:34:53;95268.47;;;8.20;100.00
8717;BME280;4395;48.554;8.820;2023-04-12T01:37:00;95266.34;;;8.22;100.00
8717;BME280;4395;48.554;8.820;2023-04-12T01:39:03;95264.41;;;8.17;100.00
8717;BME280;4395;48.554;8.820;2023-04-12T01:41:07;95254.03;;;8.21;100.00
8717;BME280;4395;48.554;8.820;2023-04-12T01:43:13;95186.94;;;7.79;100.00
8717;BME280;4395;48.554;8.820;2023-04-12T01:45:17;95254.03;;;8.21;100.00
8717;BME280;4395;48.554;8.820;2023-04-12T01:47:20;95246.53;;;8.23;100.00
8717;BME280;4395;48.554;8.820;2023-04-12T01:49:31;95242.25;;;8.22;100.00
8717;BME280;4395;48.554;8.820;2023-04-12T01:51:46;95248.09;;;8.19;100.00
8717;BME280;4395;48.554;8.820;2023-04-12T01:53:57;95237.81;;;8.05;100.00
8717;BME280;4395;48.554;8.820;2023-04-12T01:56:06;95214.06;;;7.87;100.00
8717;BME280;4395;48.554;8.820;2023-04-12T01:58:10;95097.31;;;7.22;100.00
8717;BME280;4395;48.554;8.820;2023-04-12T02:00:14;95232.50;;;8.11;100.00
8717;BME280;4395;48.554;8.820;2023-04-12T02:02:19;95185.66;;;7.81;100.00
8717;BME280;4395;48.554;8.820;2023-04-12T02:04:23;95045.09;;;6.88;100.00
8717;BME280;4395;48.554;8.820;2023-04-12T02:06:29;94939.44;;;6.26;100.00
8717;BME280;4395;48.554;8.820;2023-04-12T02:08:33;95220.94;;;8.05;100.00
8717;BME280;4395;48.554;8.820;2023-04-12T02:10:36;95216.97;;;8.07;100.00
8717;BME280;4395;48.554;8.820;2023-04-12T02:12:40;95042.53;;;6.98;100.00
8717;BME280;4395;48.554;8.820;2023-04-12T02:14:43;95166.44;;;7.84;100.00
8717;BME280;4395;48.554;8.820;2023-04-12T02:16:46;95203.88;;;8.11;100.00
8717;BME280;4395;48.554;8.820;2023-04-12T02:18:52;95207.38;;;8.12;100.00
8717;BME280;4395;48.554;8.820;2023-04-12T02:20:56;95193.44;;;8.10;100.00
8717;BME280;4395;48.554;8.820;2023-04-12T02:22:59;95184.09;;;8.12;100.00
8717;BME280;4395;48.554;8.820;2023-04-12T02:25:03;95185.94;;;8.12;100.00
8717;BME280;4395;48.554;8.820;2023-04-12T02:27:06;95188.13;;;8.15;100.00
8717;BME280;4395;48.554;8.820;2023-04-12T02:29:11;95034.16;;;7.16;100.00
8717;BME280;4395;48.554;8.820;2023-04-12T02:31:14;95173.34;;;8.07;100.00
8717;BME280;4395;48.554;8.820;2023-04-12T02:33:19;95182.97;;;8.08;100.00
8717;BME280;4395;48.554;8.820;2023-04-12T02:35:29;95040.13;;;7.23;100.00
8717;BME280;4395;48.554;8.820;2023-04-12T02:37:39;95171.22;;;8.09;100.00
8717;BME280;4395;48.554;8.820;2023-04-12T02:39:44;95150.34;;;8.11;100.00
8717;BME280;4395;48.554;8.820;2023-04-12T02:41:47;95152.81;;;8.18;100.00
8717;BME280;4395;48.554;8.820;2023-04-12T02:43:50;95142.13;;;8.18;100.00
8717;BME280;4395;48.554;8.820;2023-04-12T02:45:54;95138.38;;;8.19;100.00
8717;BME280;4395;48.554;8.820;2023-04-12T02:47:57;95141.59;;;8.21;100.00
8717;BME280;4395;48.554;8.820;2023-04-12T02:50:04;95128.78;;;8.23;100.00
8717;BME280;4395;48.554;8.820;2023-04-12T02:52:16;95059.69;;;7.83;100.00
8717;BME280;4395;48.554;8.820;2023-04-12T02:54:32;95033.59;;;7.68;100.00
8717;BME280;4395;48.554;8.820;2023-04-12T02:56:36;95117.56;;;8.26;100.00
8717;BME280;4395;48.554;8.820;2023-04-12T02:58:56;95119.69;;;8.24;100.00
8717;BME280;4395;48.554;8.820;2023-04-12T03:01:16;95119.97;;;8.27;100.00
8717;BME280;4395;48.554;8.820;2023-04-12T03:03:38;95107.94;;;8.30;100.00
8717;BME280;4395;48.554;8.820;2023-04-12T03:06:00;95103.38;;;8.25;100.00
8717;BME280;4395;48.554;8.820;2023-04-12T03:08:05;95092.91;;;8.24;100.00
8717;BME280;4395;48.554;8.820;2023-04-12T03:10:19;95092.66;;;8.25;100.00
8717;BME280;4395;48.554;8.820;2023-04-12T03:12:33;95093.72;;;8.24;100.00
8717;BME280;4395;48.554;8.820;2023-04-12T03:14:48;95091.81;;;8.20;100.00
8717;BME280;4395;48.554;8.820;2023-04-12T03:16:52;95089.13;;;8.20;100.00
8717;BME280;4395;48.554;8.820;2023-04-12T03:18:55;94899.38;;;7.02;100.00
8717;BME280;4395;48.554;8.820;2023-04-12T03:21:01;95081.66;;;8.22;100.00
8717;BME280;4395;48.554;8.820;2023-04-12T03:23:06;94927.38;;;7.26;100.00
8717;BME280;4395;48.554;8.820;2023-04-12T03:25:12;95069.59;;;8.19;100.00
8717;BME280;4395;48.554;8.820;2023-04-12T03:27:25;94939.47;;;7.34;100.00
8717;BME280;4395;48.554;8.820;2023-04-12T03:29:28;95072.00;;;8.21;100.00
8717;BME280;4395;48.554;8.820;2023-04-12T03:31:30;95068.78;;;8.19;100.00
8717;BME280;4395;48.554;8.820;2023-04-12T03:33:38;95086.97;;;8.17;100.00
8717;BME280;4395;48.554;8.820;2023-04-12T03:35:50;95070.91;;;8.17;100.00
8717;BME280;4395;48.554;8.820;2023-04-12T03:37:53;95061.81;;;8.18;100.00
8717;BME280;4395;48.554;8.820;2023-04-12T03:39:57;95062.84;;;8.12;100.00
8717;BME280;4395;48.554;8.820;2023-04-12T03:42:01;95049.47;;;8.12;100.00
8717;BME280;4395;48.554;8.820;2023-04-12T03:44:04;95055.88;;;8.11;100.00
8717;BME280;4395;48.554;8.820;2023-04-12T03:46:09;95044.38;;;8.10;100.00
8717;BME280;4395;48.554;8.820;2023-04-12T03:48:12;95041.16;;;8.08;100.00
8717;BME280;4395;48.554;8.820;2023-04-12T03:50:16;95037.41;;;8.09;100.00
8717;BME280;4395;48.554;8.820;2023-04-12T03:52:27;95028.59;;;8.14;100.00
8717;BME280;4395;48.554;8.820;2023-04-12T03:54:30;95018.97;;;8.13;100.00
8717;BME280;4395;48.554;8.820;2023-04-12T03:56:39;95023.78;;;8.11;100.00
8717;BME280;4395;48.554;8.820;2023-04-12T03:58:49;95023.22;;;8.09;100.00
8717;BME280;4395;48.554;8.820;2023-04-12T04:00:54;95013.06;;;8.11;100.00
8717;BME280;4395;48.554;8.820;2023-04-12T04:02:58;95015.72;;;8.05;100.00
8717;BME280;4395;48.554;8.820;2023-04-12T04:05:07;95030.16;;;8.04;100.00
8717;BME280;4395;48.554;8.820;2023-04-12T04:07:13;95010.63;;;8.04;100.00
8717;BME280;4395;48.554;8.820;2023-04-12T04:09:19;95012.19;;;8.00;100.00
8717;BME280;4395;48.554;8.820;2023-04-12T04:11:22;95002.28;;;8.00;100.00
8717;BME280;4395;48.554;8.820;2023-04-12T04:13:32;94997.50;;;8.02;100.00
8717;BME280;4395;48.554;8.820;2023-04-12T04:15:39;95008.41;;;7.96;100.00
8717;BME280;4395;48.554;8.820;2023-04-12T04:17:43;94806.75;;;6.75;100.00
8717;BME280;4395;48.554;8.820;2023-04-12T04:19:49;94953.31;;;7.63;100.00
8717;BME280;4395;48.554;8.820;2023-04-12T04:21:52;94812.66;;;6.77;100.00
8717;BME280;4395;48.554;8.820;2023-04-12T04:23:58;94706.97;;;6.18;100.00
8717;BME280;4395;48.554;8.820;2023-04-12T04:26:04;94980.84;;;7.95;100.00
8717;BME280;4395;48.554;8.820;2023-04-12T04:28:13;94992.09;;;7.97;100.00
8717;BME280;4395;48.554;8.820;2023-04-12T04:30:19;94968.50;;;7.89;100.00
8717;BME280;4395;48.554;8.820;2023-04-12T04:32:23;94976.06;;;7.97;100.00
8717;BME280;4395;48.554;8.820;2023-04-12T04:34:30;94972.31;;;7.98;100.00
8717;BME280;4395;48.554;8.820;2023-04-12T04:36:42;94966.38;;;7.91;100.00
8717;BME280;4395;48.554;8.820;2023-04-12T04:38:50;94969.34;;;7.95;100.00
8717;BME280;4395;48.554;8.820;2023-04-12T04:41:13;94960.28;;;8.01;100.00
8717;BME280;4395;48.554;8.820;2023-04-12T04:43:24;94961.88;;;7.97;100.00
8717;BME280;4395;48.554;8.820;2023-04-12T04:45:35;94954.13;;;8.00;100.00
8717;BME280;4395;48.554;8.820;2023-04-12T04:47:38;94947.97;;;8.00;100.00
8717;BME280;4395;48.554;8.820;2023-04-12T04:49:41;94954.13;;;8.00;100.00
8717;BME280;4395;48.554;8.820;2023-04-12T04:51:55;94826.88;;;7.25;100.00
8717;BME280;4395;48.554;8.820;2023-04-12T04:54:00;94948.78;;;8.00;100.00
8717;BME280;4395;48.554;8.820;2023-04-12T04:56:04;94947.72;;;8.01;100.00
8717;BME280;4395;48.554;8.820;2023-04-12T04:58:09;94955.75;;;8.01;100.00
8717;BME280;4395;48.554;8.820;2023-04-12T05:00:12;94912.25;;;7.79;100.00
8717;BME280;4395;48.554;8.820;2023-04-12T05:02:21;94953.63;;;8.03;100.00
8717;BME280;4395;48.554;8.820;2023-04-12T05:04:24;94949.88;;;8.04;100.00
8717;BME280;4395;48.554;8.820;2023-04-12T05:06:27;94943.19;;;8.07;100.00
8717;BME280;4395;48.554;8.820;2023-04-12T05:08:32;94945.84;;;8.02;100.00
8717;BME280;4395;48.554;8.820;2023-04-12T05:10:35;94949.34;;;8.07;100.00
8717;BME280;4395;48.554;8.820;2023-04-12T05:12:38;94945.34;;;8.10;100.00
8717;BME280;4395;48.554;8.820;2023-04-12T05:14:41;94945.03;;;8.01;100.00
8717;BME280;4395;48.554;8.820;2023-04-12T05:16:51;94947.16;;;7.99;100.00
8717;BME280;4395;48.554;8.820;2023-04-12T05:18:56;94955.50;;;8.03;100.00
8717;BME280;4395;48.554;8.820;2023-04-12T05:21:01;94848.38;;;7.40;100.00
8717;BME280;4395;48.554;8.820;2023-04-12T05:23:04;94892.41;;;7.70;100.00
8717;BME280;4395;48.554;8.820;2023-04-12T05:25:07;94939.75;;;8.12;100.00
8717;BME280;4395;48.554;8.820;2023-04-12T05:27:18;94950.44;;;8.12;100.00
8717;BME280;4395;48.554;8.820;2023-04-12T05:29:21;94947.78;;;8.12;100.00
8717;BME280;4395;48.554;8.820;2023-04-12T05:31:25;94777.13;;;7.14;100.00
8717;BME280;4395;48.554;8.820;2023-04-12T05:33:31;94928.53;;;8.15;100.00
8717;BME280;4395;48.554;8.820;2023-04-12T05:35:37;94922.66;;;8.18;100.00
8717;BME280;4395;48.554;8.820;2023-04-12T05:37:39;94928.28;;;8.21;100.00
8717;BME280;4395;48.554;8.820;2023-04-12T05:39:42;94918.94;;;8.24;100.00
8717;BME280;4395;48.554;8.820;2023-04-12T05:41:46;94921.63;;;8.29;100.00
8717;BME280;4395;48.554;8.820;2023-04-12T05:43:49;94912.00;;;8.28;100.00
8717;BME280;4395;48.554;8.820;2023-04-12T05:45:52;94908.28;;;8.34;100.00
8717;BME280;4395;48.554;8.820;2023-04-12T05:47:57;94914.19;;;8.36;100.00
8717;BME280;4395;48.554;8.820;2023-04-12T05:50:00;94798.81;;;7.70;100.00
8717;BME280;4395;48.554;8.820;2023-04-12T05:52:06;94816.53;;;7.81;100.00
8717;BME280;4395;48.554;8.820;2023-04-12T05:54:09;94889.56;;;8.39;100.00
8717;BME280;4395;48.554;8.820;2023-04-12T05:56:12;94890.66;;;8.43;100.00
8717;BME280;4395;48.554;8.820;2023-04-12T05:58:17;94872.72;;;8.44;100.00
8717;BME280;4395;48.554;8.820;2023-04-12T06:00:22;94876.75;;;8.46;100.00
8717;BME280;4395;48.554;8.820;2023-04-12T06:02:24;94827.41;;;8.27;100.00
8717;BME280;4395;48.554;8.820;2023-04-12T06:04:28;94868.47;;;8.53;100.00
8717;BME280;4395;48.554;8.820;2023-04-12T06:06:50;94833.28;;;8.29;100.00
8717;BME280;4395;48.554;8.820;2023-04-12T06:08:56;94871.16;;;8.53;100.00
8717;BME280;4395;48.554;8.820;2023-04-12T06:11:02;94864.44;;;8.55;100.00
8717;BME280;4395;48.554;8.820;2023-04-12T06:13:05;94856.94;;;8.47;100.00
8717;BME280;4395;48.554;8.820;2023-04-12T06:15:09;94866.06;;;8.61;100.00
8717;BME280;4395;48.554;8.820;2023-04-12T06:17:12;94853.22;;;8.58;100.00
8717;BME280;4395;48.554;8.820;2023-04-12T06:19:15;94865.00;;;8.62;100.00
8717;BME280;4395;48.554;8.820;2023-04-12T06:21:18;94863.41;;;8.66;100.00
8717;BME280;4395;48.554;8.820;2023-04-12T06:23:21;94862.88;;;8.64;100.00
8717;BME280;4395;48.554;8.820;2023-04-12T06:25:26;94864.47;;;8.65;100.00
8717;BME280;4395;48.554;8.820;2023-04-12T06:27:31;94850.28;;;8.70;100.00
8717;BME280;4395;48.554;8.820;2023-04-12T06:29:34;94855.91;;;8.74;100.00
8717;BME280;4395;48.554;8.820;2023-04-12T06:31:36;94850.84;;;8.77;100.00
8717;BME280;4395;48.554;8.820;2023-04-12T06:33:40;94845.22;;;8.84;100.00
8717;BME280;4395;48.554;8.820;2023-04-12T06:35:44;94844.69;;;8.82;100.00
8717;BME280;4395;48.554;8.820;2023-04-12T06:37:47;94849.22;;;8.76;100.00
8717;BME280;4395;48.554;8.820;2023-04-12T06:39:50;94833.44;;;8.85;100.00
8717;BME280;4395;48.554;8.820;2023-04-12T06:41:55;94837.72;;;8.91;100.00
8717;BME280;4395;48.554;8.820;2023-04-12T06:44:00;94835.56;;;8.93;100.00
8717;BME280;4395;48.554;8.820;2023-04-12T06:46:03;94833.44;;;8.90;100.00
8717;BME280;4395;48.554;8.820;2023-04-12T06:48:05;94837.19;;;8.99;100.00
8717;BME280;4395;48.554;8.820;2023-04-12T06:50:09;94828.59;;;8.97;100.00
8717;BME280;4395;48.554;8.820;2023-04-12T06:52:12;94813.06;;;8.99;100.00
8717;BME280;4395;48.554;8.820;2023-04-12T06:54:15;94652.88;;;7.99;100.00
8717;BME280;4395;48.554;8.820;2023-04-12T06:56:17;94772.63;;;8.75;100.00
8717;BME280;4395;48.554;8.820;2023-04-12T06:58:22;94811.47;;;9.08;100.00
8717;BME280;4395;48.554;8.820;2023-04-12T07:00:25;94806.91;;;9.09;100.00
8717;BME280;4395;48.554;8.820;2023-04-12T07:02:27;94803.41;;;9.18;100.00
8717;BME280;4395;48.554;8.820;2023-04-12T07:04:31;94799.94;;;9.18;100.00
8717;BME280;4395;48.554;8.820;2023-04-12T07:06:33;94795.91;;;9.15;100.00
8717;BME280;4395;48.554;8.820;2023-04-12T07:08:36;94801.25;;;9.20;100.00
8717;BME280;4395;48.554;8.820;2023-04-12T07:10:39;94773.94;;;9.13;100.00
8717;BME280;4395;48.554;8.820;2023-04-12T07:12:42;94746.56;;;9.21;100.00
8717;BME280;4395;48.554;8.820;2023-04-12T07:14:46;94750.31;;;9.25;100.00
8717;BME280;4395;48.554;8.820;2023-04-12T07:16:49;94743.34;;;9.34;100.00
8717;BME280;4395;48.554;8.820;2023-04-12T07:18:52;94726.13;;;9.51;100.00
8717;BME280;4395;48.554;8.820;2023-04-12T07:20:55;94740.25;;;9.72;100.00
8717;BME280;4395;48.554;8.820;2023-04-12T07:22:58;94726.00;;;9.81;100.00
8717;BME280;4395;48.554;8.820;2023-04-12T07:25:00;94741.28;;;9.86;100.00
8717;BME280;4395;48.554;8.820;2023-04-12T07:27:05;94718.97;;;9.90;100.00
8717;BME280;4395;48.554;8.820;2023-04-12T07:29:08;94739.38;;;9.91;100.00
8717;BME280;4395;48.554;8.820;2023-04-12T07:31:12;94738.53;;;9.96;100.00
8717;BME280;4395;48.554;8.820;2023-04-12T07:33:15;94723.25;;;9.96;100.00
8717;BME280;4395;48.554;8.820;2023-04-12T07:35:20;94716.53;;;9.94;100.00
8717;BME280;4395;48.554;8.820;2023-04-12T07:37:23;94732.81;;;10.13;100.00
8717;BME280;4395;48.554;8.820;2023-04-12T07:39:26;94714.53;;;10.15;100.00
8717;BME280;4395;48.554;8.820;2023-04-12T07:41:30;94651.72;;;9.72;100.00
8717;BME280;4395;48.554;8.820;2023-04-12T07:43:32;94709.41;;;10.18;100.00
8717;BME280;4395;48.554;8.820;2023-04-12T07:45:35;94704.56;;;10.25;100.00
8717;BME280;4395;48.554;8.820;2023-04-12T07:47:40;94691.34;;;10.34;100.00
8717;BME280;4395;48.554;8.820;2023-04-12T07:49:43;94710.94;;;10.35;100.00
8717;BME280;4395;48.554;8.820;2023-04-12T07:51:46;94705.66;;;10.19;100.00
8717;BME280;4395;48.554;8.820;2023-04-12T07:53:48;94656.66;;;9.98;100.00
8717;BME280;4395;48.554;8.820;2023-04-12T07:55:52;94688.94;;;10.32;100.00
8717;BME280;4395;48.554;8.820;2023-04-12T07:57:55;94684.19;;;10.19;100.00
8717;BME280;4395;48.554;8.820;2023-04-12T07:59:58;94691.72;;;10.17;100.00
8717;BME280;4395;48.554;8.820;2023-04-12T08:02:01;94675.06;;;10.20;100.00
8717;BME280;4395;48.554;8.820;2023-04-12T08:04:05;94690.63;;;10.18;100.00
8717;BME280;4395;48.554;8.820;2023-04-12T08:06:08;94695.16;;;10.28;100.00
8717;BME280;4395;48.554;8.820;2023-04-12T08:08:12;94671.91;;;10.08;100.00
8717;BME280;4395;48.554;8.820;2023-04-12T08:10:15;94691.72;;;10.17;100.00
8717;BME280;4395;48.554;8.820;2023-04-12T08:12:18;94678.56;;;10.16;100.00
8717;BME280;4395;48.554;8.820;2023-04-12T08:14:21;94673.75;;;10.13;100.00
8717;BME280;4395;48.554;8.820;2023-04-12T08:16:24;94675.81;;;10.31;100.00
8717;BME280;4395;48.554;8.820;2023-04-12T08:18:27;94673.59;;;10.38;100.00
8717;BME280;4395;48.554;8.820;2023-04-12T08:20:31;94644.19;;;10.18;100.00
8717;BME280;4395;48.554;8.820;2023-04-12T08:22:34;94688.91;;;10.43;100.00
8717;BME280;4395;48.554;8.820;2023-04-12T08:24:37;94706.25;;;10.55;100.00
8717;BME280;4395;48.554;8.820;2023-04-12T08:26:40;94693.41;;;10.52;100.00
8717;BME280;4395;48.554;8.820;2023-04-12T08:28:42;94691.22;;;10.54;100.00
8717;BME280;4395;48.554;8.820;2023-04-12T08:30:45;94697.41;;;10.55;100.00
8717;BME280;4395;48.554;8.820;2023-04-12T08:32:48;94688.47;;;10.65;100.00
8717;BME280;4395;48.554;8.820;2023-04-12T08:34:51;94676.06;;;10.69;100.00
8717;BME280;4395;48.554;8.820;2023-04-12T08:36:55;94676.50;;;10.81;100.00
8717;BME280;4395;48.554;8.820;2023-04-12T08:39:01;94681.88;;;10.81;100.00
8717;BME280;4395;48.554;8.820;2023-04-12T08:41:04;94677.75;;;10.88;100.00
8717;BME280;4395;48.554;8.820;2023-04-12T08:43:07;94683.75;;;10.80;100.00
8717;BME280;4395;48.554;8.820;2023-04-12T08:45:13;94686.50;;;10.75;100.00
8717;BME280;4395;48.554;8.820;2023-04-12T08:47:16;94679.66;;;10.88;100.00
8717;BME280;4395;48.554;8.820;2023-04-12T08:49:19;94668.81;;;10.98;100.00
8717;BME280;4395;48.554;8.820;2023-04-12T08:51:25;94680.03;;;11.05;100.00
8717;BME280;4395;48.554;8.820;2023-04-12T08:53:30;94566.16;;;10.43;100.00
8717;BME280;4395;48.554;8.820;2023-04-12T08:55:32;94675.88;;;10.89;100.00
8717;BME280;4395;48.554;8.820;2023-04-12T08:57:35;94678.28;;;10.90;100.00
8717;BME280;4395;48.554;8.820;2023-04-12T08:59:41;94670.91;;;11.01;100.00
8717;BME280;4395;48.554;8.820;2023-04-12T09:01:45;94678.88;;;11.11;100.00
8717;BME280;4395;48.554;8.820;2023-04-12T09:03:48;94608.28;;;10.77;100.00
8717;BME280;4395;48.554;8.820;2023-04-12T09:05:51;94676.59;;;11.23;100.00
8717;BME280;4395;48.554;8.820;2023-04-12T09:07:54;94676.31;;;11.25;100.00
8717;BME280;4395;48.554;8.820;2023-04-12T09:09:58;94675.00;;;11.22;100.00
8717;BME280;4395;48.554;8.820;2023-04-12T09:12:05;94671.84;;;11.15;100.00
8717;BME280;4395;48.554;8.820;2023-04-12T09:14:19;94660.97;;;11.25;100.00
8717;BME280;4395;48.554;8.820;2023-04-12T09:16:34;94656.75;;;11.19;100.00
8717;BME280;4395;48.554;8.820;2023-04-12T09:18:46;94659.44;;;11.19;100.00
8717;BME280;4395;48.554;8.820;2023-04-12T09:20:49;94655.44;;;11.17;100.00
8717;BME280;4395;48.554;8.820;2023-04-12T09:22:52;94651.53;;;11.04;100.00
8717;BME280;4395;48.554;8.820;2023-04-12T09:24:57;94660.88;;;11.12;100.00
8717;BME280;4395;48.554;8.820;2023-04-12T09:27:01;94654.41;;;11.13;100.00
8717;BME280;4395;48.554;8.820;2023-04-12T09:29:05;94647.00;;;11.00;100.00
8717;BME280;4395;48.554;8.820;2023-04-12T09:31:21;94674.06;;;11.08;100.00
8717;BME280;4395;48.554;8.820;2023-04-12T09:33:32;94669.16;;;11.15;100.00
8717;BME280;4395;48.554;8.820;2023-04-12T09:35:35;94557.69;;;10.60;100.00
8717;BME280;4395;48.554;8.820;2023-04-12T09:37:38;94656.13;;;11.27;100.00
8717;BME280;4395;48.554;8.820;2023-04-12T09:39:41;94662.06;;;11.24;100.00
8717;BME280;4395;48.554;8.820;2023-04-12T09:41:45;94649.81;;;11.13;100.00
8717;BME280;4395;48.554;8.820;2023-04-12T09:43:48;94631.22;;;11.17;100.00
8717;BME280;4395;48.554;8.820;2023-04-12T09:46:08;94628.50;;;11.22;100.00
8717;BME280;4395;48.554;8.820;2023-04-12T09:48:17;94617.47;;;11.42;100.00
8717;BME280;4395;48.554;8.820;2023-04-12T09:50:21;94534.53;;;10.88;100.00
8717;BME280;4395;48.554;8.820;2023-04-12T09:52:34;94631.97;;;11.65;100.00
8717;BME280;4395;48.554;8.820;2023-04-12T09:54:38;94637.31;;;11.70;100.00
8717;BME280;4395;48.554;8.820;2023-04-12T09:56:43;94628.75;;;11.44;100.00
8717;BME280;4395;48.554;8.820;2023-04-12T09:58:51;94624.56;;;11.57;100.00
8717;BME280;4395;48.554;8.820;2023-04-12T10:00:55;94630.16;;;11.60;100.00
8717;BME280;4395;48.554;8.820;2023-04-12T10:03:00;94622.56;;;11.44;100.00
8717;BME280;4395;48.554;8.820;2023-04-12T10:05:04;94609.53;;;11.32;100.00
8717;BME280;4395;48.554;8.820;2023-04-12T10:07:08;94631.59;;;11.53;100.00
8717;BME280;4395;48.554;8.820;2023-04-12T10:09:13;94631.38;;;11.49;100.00
8717;BME280;4395;48.554;8.820;2023-04-12T10:11:16;94611.06;;;11.38;100.00
8717;BME280;4395;48.554;8.820;2023-04-12T10:13:20;94606.00;;;11.37;100.00
8717;BME280;4395;48.554;8.820;2023-04-12T10:15:28;94594.66;;;11.40;100.00
8717;BME280;4395;48.554;8.820;2023-04-12T10:17:35;94605.25;;;11.31;100.00
8717;BME280;4395;48.554;8.820;2023-04-12T10:19:38;94603.59;;;11.35;100.00
8717;BME280;4395;48.554;8.820;2023-04-12T10:21:41;94607.69;;;11.51;100.00
8717;BME280;4395;48.554;8.820;2023-04-12T10:23:44;94616.34;;;11.67;100.00
8717;BME280;4395;48.554;8.820;2023-04-12T10:25:47;94585.97;;;11.85;100.00
8717;BME280;4395;48.554;8.820;2023-04-12T10:27:51;94616.69;;;11.84;100.00
8717;BME280;4395;48.554;8.820;2023-04-12T10:30:17;94601.41;;;11.99;100.00
8717;BME280;4395;48.554;8.820;2023-04-12T10:32:23;94539.41;;;11.66;100.00
8717;BME280;4395;48.554;8.820;2023-04-12T10:34:31;94599.75;;;12.35;100.00
8717;BME280;4395;48.554;8.820;2023-04-12T10:36:53;94595.03;;;12.27;100.00
8717;BME280;4395;48.554;8.820;2023-04-12T10:39:07;94605.88;;;12.22;100.00
8717;BME280;4395;48.554;8.820;2023-04-12T10:41:15;94598.75;;;12.31;100.00
8717;BME280;4395;48.554;8.820;2023-04-12T10:43:25;94582.22;;;12.51;100.00
8717;BME280;4395;48.554;8.820;2023-04-12T10:45:36;94584.75;;;12.62;100.00
8717;BME280;4395;48.554;8.820;2023-04-12T10:47:55;94585.16;;;12.69;100.00
8717;BME280;4395;48.554;8.820;2023-04-12T10:50:21;94572.91;;;12.76;100.00
8717;BME280;4395;48.554;8.820;2023-04-12T10:52:26;94488.81;;;12.33;100.00
8717;BME280;4395;48.554;8.820;2023-04-12T10:54:30;94578.72;;;12.97;100.00
8717;BME280;4395;48.554;8.820;2023-04-12T10:56:40;94580.84;;;13.00;100.00
8717;BME280;4395;48.554;8.820;2023-04-12T10:58:57;94561.31;;;12.62;100.00
8717;BME280;4395;48.554;8.820;2023-04-12T11:01:12;94587.19;;;12.77;100.00
8717;BME280;4395;48.554;8.820;2023-04-12T11:03:20;94588.81;;;12.45;100.00
8717;BME280;4395;48.554;8.820;2023-04-12T11:05:23;94574.75;;;12.48;100.00
8717;BME280;4395;48.554;8.820;2023-04-12T11:07:37;94591.03;;;12.57;100.00
8717;BME280;4395;48.554;8.820;2023-04-12T11:10:01;94581.06;;;12.57;100.00
8717;BME280;4395;48.554;8.820;2023-04-12T11:12:12;94570.28;;;12.57;100.00
8717;BME280;4395;48.554;8.820;2023-04-12T11:14:17;94554.53;;;12.78;100.00
8717;BME280;4395;48.554;8.820;2023-04-12T11:16:25;94511.59;;;12.54;100.00
8717;BME280;4395;48.554;8.820;2023-04-12T11:18:32;94552.44;;;12.75;100.00
8717;BME280;4395;48.554;8.820;2023-04-12T11:20:38;94555.53;;;12.96;100.00